PWSweather.com
Personal Weather Stations
Station Observations
N4PAZ
Kendale Lakes, Miami, FL 33175

Kendale LakesMiami, FL 33175

Lat: 25.72749, Lon: -80.4058

Elevation: 33

Station Type: Oregon scientific WMR968

High Low Average
Temperature 83.8°F28.8°C 68.4°F20.2°C 76.2°F24.6°C
Dew Point 71.2°F21.8°C 46.3°F7.9°C 59.6°F15.3°C
Winds 15.3 mph 24.6 kmh 4.1 mph 6.6 kmh 9.0 mph SW14.5 kmh SW
Wind Gusts 28.4 mph45.7 kmh 6.3 mph10.1 kmh 16.0 mph25.7 kmh
Humidity 95% 27% 61%
Pressure 29.74 in1007.1 mb 29.65 in1004.1 mb -
Precipitation 0.16 in4.1 mm - -
Hour Temp Dew Point Humidity Winds Wind Gusts Pressure Precip Precip Rate Daily Precip Total
12:03 AM 73.9°F23.3°C 69.5°F20.8°C 86% 8.0 mph SSE12.9 kmh SSE 13.2 mph21.2 kmh 29.74 in1007.1 mb 0.00 in0.0 mm 0.00 in/hr0.0 mm/hr 0.00 in0.0 mm
12:09 AM 73.9°F23.3°C 69.8°F21.0°C 87% 7.2 mph SSE11.6 kmh SSE 12.3 mph19.8 kmh 29.77 in1008.1 mb 0.00 in0.0 mm 0.00 in/hr0.0 mm/hr 0.00 in0.0 mm
12:15 AM 73.9°F23.3°C 69.8°F21.0°C 87% 7.3 mph SSE11.7 kmh SSE 12.8 mph20.6 kmh 29.77 in1008.1 mb 0.00 in0.0 mm 0.00 in/hr0.0 mm/hr 0.00 in0.0 mm
12:21 AM 73.9°F23.3°C 69.8°F21.0°C 87% 7.4 mph S11.9 kmh S 12.8 mph20.6 kmh 29.74 in1007.1 mb 0.00 in0.0 mm 0.00 in/hr0.0 mm/hr 0.00 in0.0 mm
12:27 AM 73.9°F23.3°C 69.5°F20.8°C 86% 7.2 mph SSE11.6 kmh SSE 11.4 mph18.3 kmh 29.74 in1007.1 mb 0.00 in0.0 mm 0.00 in/hr0.0 mm/hr 0.00 in0.0 mm
12:33 AM 73.9°F23.3°C 69.1°F20.6°C 85% 8.0 mph SSE12.9 kmh SSE 12.8 mph20.6 kmh 29.74 in1007.1 mb 0.00 in0.0 mm 0.00 in/hr0.0 mm/hr 0.00 in0.0 mm
12:39 AM 73.8°F23.2°C 69.0°F20.6°C 85% 7.9 mph S12.7 kmh S 11.9 mph19.2 kmh 29.74 in1007.1 mb 0.00 in0.0 mm 0.00 in/hr0.0 mm/hr 0.00 in0.0 mm
12:45 AM 73.8°F23.2°C 69.0°F20.6°C 85% 8.5 mph S13.7 kmh S 15.4 mph24.8 kmh 29.74 in1007.1 mb 0.00 in0.0 mm 0.00 in/hr0.0 mm/hr 0.00 in0.0 mm
12:51 AM 73.8°F23.2°C 69.0°F20.6°C 85% 9.1 mph S14.6 kmh S 15.4 mph24.8 kmh 29.74 in1007.1 mb 0.00 in0.0 mm 0.00 in/hr0.0 mm/hr 0.00 in0.0 mm
12:57 AM 73.6°F23.1°C 69.1°F20.6°C 86% 7.6 mph S12.2 kmh S 13.2 mph21.2 kmh 29.74 in1007.1 mb 0.00 in0.0 mm 0.00 in/hr0.0 mm/hr 0.00 in0.0 mm
01:03 AM 73.6°F23.1°C 69.1°F20.6°C 86% 7.2 mph S11.6 kmh S 13.2 mph21.2 kmh 29.74 in1007.1 mb 0.00 in0.0 mm 0.00 in/hr0.0 mm/hr 0.00 in0.0 mm
01:09 AM 73.6°F23.1°C 69.5°F20.8°C 87% 7.6 mph S12.2 kmh S 15.4 mph24.8 kmh 29.74 in1007.1 mb 0.00 in0.0 mm 0.00 in/hr0.0 mm/hr 0.00 in0.0 mm
01:15 AM 73.6°F23.1°C 69.5°F20.8°C 87% 8.0 mph SSE12.9 kmh SSE 11.0 mph17.7 kmh 29.74 in1007.1 mb 0.00 in0.0 mm 0.00 in/hr0.0 mm/hr 0.00 in0.0 mm
01:21 AM 73.6°F23.1°C 69.5°F20.8°C 87% 7.4 mph SSE11.9 kmh SSE 11.0 mph17.7 kmh 29.74 in1007.1 mb 0.00 in0.0 mm 0.00 in/hr0.0 mm/hr 0.00 in0.0 mm
01:27 AM 73.6°F23.1°C 69.5°F20.8°C 87% 8.1 mph S13.0 kmh S 16.8 mph27.0 kmh 29.74 in1007.1 mb 0.00 in0.0 mm 0.00 in/hr0.0 mm/hr 0.00 in0.0 mm
01:33 AM 73.6°F23.1°C 69.5°F20.8°C 87% 8.5 mph S13.7 kmh S 16.8 mph27.0 kmh 29.74 in1007.1 mb 0.00 in0.0 mm 0.00 in/hr0.0 mm/hr 0.00 in0.0 mm
01:39 AM 73.6°F23.1°C 69.5°F20.8°C 87% 7.6 mph S12.2 kmh S 13.6 mph21.9 kmh 29.71 in1006.1 mb 0.00 in0.0 mm 0.00 in/hr0.0 mm/hr 0.00 in0.0 mm
01:45 AM 73.6°F23.1°C 69.5°F20.8°C 87% 7.1 mph S11.4 kmh S 13.2 mph21.2 kmh 29.71 in1006.1 mb 0.00 in0.0 mm 0.00 in/hr0.0 mm/hr 0.00 in0.0 mm
01:51 AM 73.4°F23.0°C 69.3°F20.7°C 87% 7.6 mph S12.2 kmh S 13.2 mph21.2 kmh 29.71 in1006.1 mb 0.00 in0.0 mm 0.00 in/hr0.0 mm/hr 0.00 in0.0 mm
01:57 AM 73.2°F22.9°C 69.1°F20.6°C 87% 7.9 mph S12.7 kmh S 13.2 mph21.2 kmh 29.71 in1006.1 mb 0.00 in0.0 mm 0.00 in/hr0.0 mm/hr 0.00 in0.0 mm
02:03 AM 73.2°F22.9°C 69.1°F20.6°C 87% 7.4 mph S11.9 kmh S 11.4 mph18.3 kmh 29.71 in1006.1 mb 0.00 in0.0 mm 0.00 in/hr0.0 mm/hr 0.00 in0.0 mm
02:09 AM 73.0°F22.8°C 68.9°F20.5°C 87% 7.0 mph S11.3 kmh S 12.3 mph19.8 kmh 29.71 in1006.1 mb 0.00 in0.0 mm 0.00 in/hr0.0 mm/hr 0.00 in0.0 mm
02:15 AM 73.0°F22.8°C 69.3°F20.7°C 88% 6.9 mph S11.1 kmh S 12.3 mph19.8 kmh 29.71 in1006.1 mb 0.00 in0.0 mm 0.00 in/hr0.0 mm/hr 0.00 in0.0 mm
02:21 AM 73.0°F22.8°C 69.3°F20.7°C 88% 6.9 mph S11.1 kmh S 11.0 mph17.7 kmh 29.71 in1006.1 mb 0.00 in0.0 mm 0.00 in/hr0.0 mm/hr 0.00 in0.0 mm
02:27 AM 72.9°F22.7°C 69.1°F20.6°C 88% 6.9 mph S11.1 kmh S 11.4 mph18.3 kmh 29.71 in1006.1 mb 0.00 in0.0 mm 0.00 in/hr0.0 mm/hr 0.00 in0.0 mm
02:33 AM 72.9°F22.7°C 69.1°F20.6°C 88% 7.0 mph S11.3 kmh S 11.4 mph18.3 kmh 29.71 in1006.1 mb 0.00 in0.0 mm 0.00 in/hr0.0 mm/hr 0.00 in0.0 mm
02:39 AM 72.9°F22.7°C 69.4°F20.8°C 89% 7.1 mph S11.4 kmh S 10.1 mph16.3 kmh 29.71 in1006.1 mb 0.00 in0.0 mm 0.00 in/hr0.0 mm/hr 0.00 in0.0 mm
02:45 AM 72.9°F22.7°C 69.4°F20.8°C 89% 7.3 mph S11.7 kmh S 15.9 mph25.6 kmh 29.71 in1006.1 mb 0.00 in0.0 mm 0.00 in/hr0.0 mm/hr 0.00 in0.0 mm
02:51 AM 72.7°F22.6°C 69.6°F20.9°C 90% 7.8 mph S12.6 kmh S 15.9 mph25.6 kmh 29.68 in1005.1 mb 0.00 in0.0 mm 0.00 in/hr0.0 mm/hr 0.00 in0.0 mm
02:57 AM 72.7°F22.6°C 69.6°F20.9°C 90% 7.9 mph S12.7 kmh S 13.2 mph21.2 kmh 29.68 in1005.1 mb 0.00 in0.0 mm 0.00 in/hr0.0 mm/hr 0.00 in0.0 mm
03:03 AM 72.5°F22.5°C 69.7°F20.9°C 91% 7.8 mph S12.6 kmh S 13.2 mph21.2 kmh 29.68 in1005.1 mb 0.00 in0.0 mm 0.00 in/hr0.0 mm/hr 0.00 in0.0 mm
03:09 AM 72.5°F22.5°C 69.7°F20.9°C 91% 7.9 mph S12.7 kmh S 14.1 mph22.7 kmh 29.68 in1005.1 mb 0.00 in0.0 mm 0.00 in/hr0.0 mm/hr 0.00 in0.0 mm
03:15 AM 72.5°F22.5°C 70.4°F21.3°C 93% 8.7 mph S14.0 kmh S 14.1 mph22.7 kmh 29.68 in1005.1 mb 0.00 in0.0 mm 0.00 in/hr0.0 mm/hr 0.00 in0.0 mm
03:21 AM 72.5°F22.5°C 70.4°F21.3°C 93% 8.2 mph S13.2 kmh S 14.5 mph23.3 kmh 29.68 in1005.1 mb 0.00 in0.0 mm 0.00 in/hr0.0 mm/hr 0.00 in0.0 mm
03:27 AM 72.5°F22.5°C 70.4°F21.3°C 93% 7.7 mph S12.4 kmh S 14.5 mph23.3 kmh 29.68 in1005.1 mb 0.00 in0.0 mm 0.00 in/hr0.0 mm/hr 0.00 in0.0 mm
03:33 AM 72.3°F22.4°C 70.2°F21.2°C 93% 7.5 mph S12.1 kmh S 13.2 mph21.2 kmh 29.68 in1005.1 mb 0.00 in0.0 mm 0.00 in/hr0.0 mm/hr 0.00 in0.0 mm
03:39 AM 72.3°F22.4°C 70.2°F21.2°C 93% 7.7 mph S12.4 kmh S 13.2 mph21.2 kmh 29.68 in1005.1 mb 0.00 in0.0 mm 0.00 in/hr0.0 mm/hr 0.00 in0.0 mm
03:45 AM 72.5°F22.5°C 70.4°F21.3°C 93% 7.7 mph S12.4 kmh S 12.3 mph19.8 kmh 29.68 in1005.1 mb 0.00 in0.0 mm 0.00 in/hr0.0 mm/hr 0.00 in0.0 mm
03:51 AM 72.5°F22.5°C 70.7°F21.5°C 94% 7.8 mph S12.6 kmh S 14.5 mph23.3 kmh 29.68 in1005.1 mb 0.00 in0.0 mm 0.00 in/hr0.0 mm/hr 0.00 in0.0 mm
03:57 AM 72.5°F22.5°C 70.7°F21.5°C 94% 8.4 mph S13.5 kmh S 15.0 mph24.1 kmh 29.68 in1005.1 mb 0.00 in0.0 mm 0.00 in/hr0.0 mm/hr 0.00 in0.0 mm
04:03 AM 72.5°F22.5°C 70.7°F21.5°C 94% 8.7 mph S14.0 kmh S 15.0 mph24.1 kmh 29.68 in1005.1 mb 0.00 in0.0 mm 0.00 in/hr0.0 mm/hr 0.00 in0.0 mm
04:09 AM 72.5°F22.5°C 70.7°F21.5°C 94% 8.5 mph SSW13.7 kmh SSW 15.0 mph24.1 kmh 29.65 in1004.1 mb 0.00 in0.0 mm 0.00 in/hr0.0 mm/hr 0.00 in0.0 mm
04:15 AM 72.7°F22.6°C 71.2°F21.8°C 95% 8.7 mph SSW14.0 kmh SSW 15.0 mph24.1 kmh 29.65 in1004.1 mb 0.00 in0.0 mm 0.00 in/hr0.0 mm/hr 0.00 in0.0 mm
04:21 AM 72.7°F22.6°C 71.2°F21.8°C 95% 8.6 mph SSW13.8 kmh SSW 15.0 mph24.1 kmh 29.68 in1005.1 mb 0.00 in0.0 mm 0.00 in/hr0.0 mm/hr 0.00 in0.0 mm
04:27 AM 72.7°F22.6°C 71.2°F21.8°C 95% 8.7 mph SSW14.0 kmh SSW 15.4 mph24.8 kmh 29.68 in1005.1 mb 0.00 in0.0 mm 0.00 in/hr0.0 mm/hr 0.00 in0.0 mm
04:33 AM 72.7°F22.6°C 71.2°F21.8°C 95% 8.4 mph SW13.5 kmh SW 15.4 mph24.8 kmh 29.68 in1005.1 mb 0.00 in0.0 mm 0.00 in/hr0.0 mm/hr 0.00 in0.0 mm
04:39 AM 72.7°F22.6°C 71.2°F21.8°C 95% 8.0 mph SW12.9 kmh SW 14.5 mph23.3 kmh 29.68 in1005.1 mb 0.00 in0.0 mm 0.00 in/hr0.0 mm/hr 0.00 in0.0 mm
04:45 AM 72.7°F22.6°C 71.2°F21.8°C 95% 8.6 mph SW13.8 kmh SW 13.2 mph21.2 kmh 29.68 in1005.1 mb 0.00 in0.0 mm 0.00 in/hr0.0 mm/hr 0.00 in0.0 mm
04:51 AM 72.7°F22.6°C 71.2°F21.8°C 95% 8.6 mph SW13.8 kmh SW 13.2 mph21.2 kmh 29.68 in1005.1 mb 0.00 in0.0 mm 0.00 in/hr0.0 mm/hr 0.00 in0.0 mm
04:57 AM 72.7°F22.6°C 71.2°F21.8°C 95% 8.0 mph SSW12.9 kmh SSW 13.6 mph21.9 kmh 29.68 in1005.1 mb 0.00 in0.0 mm 0.00 in/hr0.0 mm/hr 0.00 in0.0 mm
05:03 AM 72.7°F22.6°C 71.2°F21.8°C 95% 7.4 mph SW11.9 kmh SW 11.9 mph19.2 kmh 29.68 in1005.1 mb 0.00 in0.0 mm 0.00 in/hr0.0 mm/hr 0.00 in0.0 mm
05:09 AM 72.7°F22.6°C 71.2°F21.8°C 95% 7.1 mph SSW11.4 kmh SSW 11.9 mph19.2 kmh 29.68 in1005.1 mb 0.00 in0.0 mm 0.00 in/hr0.0 mm/hr 0.00 in0.0 mm
05:15 AM 72.7°F22.6°C 71.2°F21.8°C 95% 7.4 mph SW11.9 kmh SW 12.3 mph19.8 kmh 29.68 in1005.1 mb 0.00 in0.0 mm 0.00 in/hr0.0 mm/hr 0.00 in0.0 mm
05:21 AM 72.7°F22.6°C 71.2°F21.8°C 95% 8.0 mph SW12.9 kmh SW 12.3 mph19.8 kmh 29.68 in1005.1 mb 0.00 in0.0 mm 0.00 in/hr0.0 mm/hr 0.00 in0.0 mm
05:27 AM 72.7°F22.6°C 70.5°F21.4°C 93% 9.6 mph SW15.4 kmh SW 19.7 mph31.7 kmh 29.68 in1005.1 mb 0.00 in0.0 mm 0.00 in/hr0.0 mm/hr 0.00 in0.0 mm
05:33 AM 72.5°F22.5°C 69.1°F20.6°C 89% 10.5 mph SW16.9 kmh SW 19.7 mph31.7 kmh 29.68 in1005.1 mb 0.00 in0.0 mm 0.00 in/hr0.0 mm/hr 0.00 in0.0 mm
05:39 AM 72.1°F22.3°C 67.4°F19.7°C 85% 7.8 mph WSW12.6 kmh WSW 12.8 mph20.6 kmh 29.68 in1005.1 mb 0.00 in0.0 mm 0.00 in/hr0.0 mm/hr 0.00 in0.0 mm
05:45 AM 71.6°F22.0°C 65.8°F18.8°C 82% 6.7 mph SW10.8 kmh SW 11.0 mph17.7 kmh 29.68 in1005.1 mb 0.00 in0.0 mm 0.00 in/hr0.0 mm/hr 0.00 in0.0 mm
05:51 AM 71.1°F21.7°C 64.6°F18.1°C 80% 7.4 mph SW11.9 kmh SW 11.9 mph19.2 kmh 29.68 in1005.1 mb 0.00 in0.0 mm 0.00 in/hr0.0 mm/hr 0.00 in0.0 mm
05:57 AM 70.7°F21.5°C 64.2°F17.9°C 80% 7.9 mph SW12.7 kmh SW 13.2 mph21.2 kmh 29.68 in1005.1 mb 0.00 in0.0 mm 0.00 in/hr0.0 mm/hr 0.00 in0.0 mm
06:03 AM 70.0°F21.1°C 63.5°F17.5°C 80% 7.3 mph SW11.7 kmh SW 13.2 mph21.2 kmh 29.68 in1005.1 mb 0.00 in0.0 mm 0.00 in/hr0.0 mm/hr 0.00 in0.0 mm
06:09 AM 69.6°F20.9°C 63.5°F17.5°C 81% 6.1 mph SW9.8 kmh SW 8.7 mph14.0 kmh 29.68 in1005.1 mb 0.00 in0.0 mm 0.00 in/hr0.0 mm/hr 0.00 in0.0 mm
06:15 AM 69.3°F20.7°C 63.2°F17.3°C 81% 6.5 mph SW10.5 kmh SW 10.5 mph16.9 kmh 29.68 in1005.1 mb 0.00 in0.0 mm 0.00 in/hr0.0 mm/hr 0.00 in0.0 mm
06:21 AM 69.1°F20.6°C 63.0°F17.2°C 81% 6.7 mph SW10.8 kmh SW 10.5 mph16.9 kmh 29.68 in1005.1 mb 0.00 in0.0 mm 0.00 in/hr0.0 mm/hr 0.00 in0.0 mm
06:27 AM 68.9°F20.5°C 62.8°F17.1°C 81% 6.4 mph SSW10.3 kmh SSW 8.7 mph14.0 kmh 29.68 in1005.1 mb 0.00 in0.0 mm 0.00 in/hr0.0 mm/hr 0.00 in0.0 mm
06:33 AM 68.7°F20.4°C 63.0°F17.2°C 82% 6.1 mph SSW9.8 kmh SSW 8.7 mph14.0 kmh 29.68 in1005.1 mb 0.00 in0.0 mm 0.00 in/hr0.0 mm/hr 0.00 in0.0 mm
06:39 AM 68.5°F20.3°C 63.2°F17.3°C 83% 5.1 mph SSW8.2 kmh SSW 8.3 mph13.4 kmh 29.68 in1005.1 mb 0.00 in0.0 mm 0.00 in/hr0.0 mm/hr 0.00 in0.0 mm
06:45 AM 68.5°F20.3°C 63.8°F17.7°C 85% 5.3 mph SW8.5 kmh SW 8.7 mph14.0 kmh 29.68 in1005.1 mb 0.00 in0.0 mm 0.00 in/hr0.0 mm/hr 0.00 in0.0 mm
06:51 AM 68.4°F20.2°C 64.0°F17.8°C 86% 5.7 mph SW9.2 kmh SW 8.7 mph14.0 kmh 29.71 in1006.1 mb 0.00 in0.0 mm 0.00 in/hr0.0 mm/hr 0.00 in0.0 mm
06:57 AM 68.4°F20.2°C 64.3°F17.9°C 87% 5.7 mph SW9.2 kmh SW 8.7 mph14.0 kmh 29.71 in1006.1 mb 0.00 in0.0 mm 0.00 in/hr0.0 mm/hr 0.00 in0.0 mm
07:03 AM 68.4°F20.2°C 64.3°F17.9°C 87% 5.6 mph SW9.0 kmh SW 8.7 mph14.0 kmh 29.71 in1006.1 mb 0.00 in0.0 mm 0.00 in/hr0.0 mm/hr 0.00 in0.0 mm
07:09 AM 68.4°F20.2°C 64.3°F17.9°C 87% 5.2 mph SW8.4 kmh SW 8.3 mph13.4 kmh 29.71 in1006.1 mb 0.00 in0.0 mm 0.00 in/hr0.0 mm/hr 0.00 in0.0 mm
07:15 AM 68.4°F20.2°C 64.3°F17.9°C 87% 5.0 mph SW8.0 kmh SW 8.3 mph13.4 kmh 29.71 in1006.1 mb 0.00 in0.0 mm 0.00 in/hr0.0 mm/hr 0.00 in0.0 mm
07:21 AM 68.5°F20.3°C 64.8°F18.2°C 88% 4.7 mph SW7.6 kmh SW 6.3 mph10.1 kmh 29.71 in1006.1 mb 0.00 in0.0 mm 0.00 in/hr0.0 mm/hr 0.00 in0.0 mm
07:27 AM 68.5°F20.3°C 64.8°F18.2°C 88% 4.4 mph SW7.1 kmh SW 7.6 mph12.2 kmh 29.71 in1006.1 mb 0.00 in0.0 mm 0.00 in/hr0.0 mm/hr 0.00 in0.0 mm
07:33 AM 68.9°F20.5°C 65.2°F18.4°C 88% 4.3 mph SW6.9 kmh SW 7.6 mph12.2 kmh 29.71 in1006.1 mb 0.00 in0.0 mm 0.00 in/hr0.0 mm/hr 0.00 in0.0 mm
07:39 AM 69.3°F20.7°C 65.6°F18.7°C 88% 4.1 mph SW6.6 kmh SW 6.7 mph10.8 kmh 29.68 in1005.1 mb 0.00 in0.0 mm 0.00 in/hr0.0 mm/hr 0.00 in0.0 mm
07:45 AM 69.8°F21.0°C 65.8°F18.8°C 87% 4.3 mph SW6.9 kmh SW 6.3 mph10.1 kmh 29.68 in1005.1 mb 0.00 in0.0 mm 0.00 in/hr0.0 mm/hr 0.00 in0.0 mm
07:51 AM 70.3°F21.3°C 65.6°F18.7°C 85% 4.6 mph SW7.4 kmh SW 6.3 mph10.1 kmh 29.71 in1006.1 mb 0.00 in0.0 mm 0.00 in/hr0.0 mm/hr 0.00 in0.0 mm
07:57 AM 70.9°F21.6°C 64.8°F18.2°C 81% 5.0 mph SW8.0 kmh SW 8.1 mph13.0 kmh 29.71 in1006.1 mb 0.00 in0.0 mm 0.00 in/hr0.0 mm/hr 0.00 in0.0 mm
08:03 AM 71.4°F21.9°C 63.8°F17.7°C 77% 6.6 mph SW10.6 kmh SW 15.4 mph24.8 kmh 29.71 in1006.1 mb 0.00 in0.0 mm 0.00 in/hr0.0 mm/hr 0.00 in0.0 mm
08:09 AM 71.8°F22.1°C 63.0°F17.2°C 74% 7.4 mph SW11.9 kmh SW 11.4 mph18.3 kmh 29.71 in1006.1 mb 0.00 in0.0 mm 0.00 in/hr0.0 mm/hr 0.00 in0.0 mm
08:15 AM 72.1°F22.3°C 63.0°F17.2°C 73% 6.5 mph SW10.5 kmh SW 10.5 mph16.9 kmh 29.71 in1006.1 mb 0.00 in0.0 mm 0.00 in/hr0.0 mm/hr 0.00 in0.0 mm
08:21 AM 72.5°F22.5°C 61.3°F16.3°C 68% 6.6 mph WSW10.6 kmh WSW 11.4 mph18.3 kmh 29.71 in1006.1 mb 0.00 in0.0 mm 0.00 in/hr0.0 mm/hr 0.00 in0.0 mm
08:27 AM 73.0°F22.8°C 61.4°F16.3°C 67% 7.0 mph WSW11.3 kmh WSW 11.4 mph18.3 kmh 29.71 in1006.1 mb 0.00 in0.0 mm 0.00 in/hr0.0 mm/hr 0.00 in0.0 mm
08:33 AM 73.2°F22.9°C 60.3°F15.7°C 64% 7.2 mph WSW11.6 kmh WSW 13.2 mph21.2 kmh 29.71 in1006.1 mb 0.00 in0.0 mm 0.00 in/hr0.0 mm/hr 0.00 in0.0 mm
08:39 AM 73.6°F23.1°C 58.8°F14.9°C 60% 8.4 mph SW13.5 kmh SW 13.2 mph21.2 kmh 29.71 in1006.1 mb 0.00 in0.0 mm 0.00 in/hr0.0 mm/hr 0.00 in0.0 mm
08:45 AM 73.8°F23.2°C 58.5°F14.7°C 59% 8.3 mph WSW13.4 kmh WSW 11.9 mph19.2 kmh 29.71 in1006.1 mb 0.00 in0.0 mm 0.00 in/hr0.0 mm/hr 0.00 in0.0 mm
08:51 AM 74.1°F23.4°C 58.9°F14.9°C 59% 8.0 mph WSW12.9 kmh WSW 12.3 mph19.8 kmh 29.71 in1006.1 mb 0.00 in0.0 mm 0.00 in/hr0.0 mm/hr 0.00 in0.0 mm
08:57 AM 74.5°F23.6°C 59.2°F15.1°C 59% 7.9 mph WSW12.7 kmh WSW 12.3 mph19.8 kmh 29.71 in1006.1 mb 0.00 in0.0 mm 0.00 in/hr0.0 mm/hr 0.00 in0.0 mm
09:03 AM 74.8°F23.8°C 58.1°F14.5°C 56% 7.4 mph WSW11.9 kmh WSW 12.3 mph19.8 kmh 29.71 in1006.1 mb 0.00 in0.0 mm 0.00 in/hr0.0 mm/hr 0.00 in0.0 mm
09:09 AM 74.8°F23.8°C 58.1°F14.5°C 56% 7.5 mph WSW12.1 kmh WSW 12.3 mph19.8 kmh 29.71 in1006.1 mb 0.00 in0.0 mm 0.00 in/hr0.0 mm/hr 0.00 in0.0 mm
09:15 AM 74.8°F23.8°C 57.6°F14.2°C 55% 7.3 mph WSW11.7 kmh WSW 11.9 mph19.2 kmh 29.71 in1006.1 mb 0.00 in0.0 mm 0.00 in/hr0.0 mm/hr 0.00 in0.0 mm
09:21 AM 75.0°F23.9°C 58.3°F14.6°C 56% 8.0 mph WSW12.9 kmh WSW 11.9 mph19.2 kmh 29.71 in1006.1 mb 0.00 in0.0 mm 0.00 in/hr0.0 mm/hr 0.00 in0.0 mm
09:27 AM 75.7°F24.3°C 57.9°F14.4°C 54% 8.6 mph WSW13.8 kmh WSW 14.5 mph23.3 kmh 29.71 in1006.1 mb 0.00 in0.0 mm 0.00 in/hr0.0 mm/hr 0.00 in0.0 mm
09:33 AM 76.6°F24.8°C 57.2°F14.0°C 51% 9.2 mph WSW14.8 kmh WSW 15.0 mph24.1 kmh 29.71 in1006.1 mb 0.00 in0.0 mm 0.00 in/hr0.0 mm/hr 0.00 in0.0 mm
09:39 AM 77.4°F25.2°C 56.7°F13.7°C 49% 8.8 mph WSW14.2 kmh WSW 15.4 mph24.8 kmh 29.71 in1006.1 mb 0.00 in0.0 mm 0.00 in/hr0.0 mm/hr 0.00 in0.0 mm
09:45 AM 78.1°F25.6°C 56.8°F13.8°C 48% 9.0 mph WSW14.5 kmh WSW 15.4 mph24.8 kmh 29.71 in1006.1 mb 0.00 in0.0 mm 0.00 in/hr0.0 mm/hr 0.00 in0.0 mm
09:51 AM 78.3°F25.7°C 56.4°F13.6°C 47% 9.8 mph WSW15.8 kmh WSW 15.9 mph25.6 kmh 29.74 in1007.1 mb 0.00 in0.0 mm 0.00 in/hr0.0 mm/hr 0.00 in0.0 mm
09:57 AM 78.3°F25.7°C 56.4°F13.6°C 47% 10.2 mph SW16.4 kmh SW 15.9 mph25.6 kmh 29.74 in1007.1 mb 0.00 in0.0 mm 0.00 in/hr0.0 mm/hr 0.00 in0.0 mm
10:03 AM 78.4°F25.8°C 56.5°F13.6°C 47% 10.4 mph SW16.7 kmh SW 15.4 mph24.8 kmh 29.74 in1007.1 mb 0.00 in0.0 mm 0.00 in/hr0.0 mm/hr 0.00 in0.0 mm
10:09 AM 78.6°F25.9°C 54.9°F12.7°C 44% 11.4 mph WSW18.3 kmh WSW 19.7 mph31.7 kmh 29.71 in1006.1 mb 0.00 in0.0 mm 0.00 in/hr0.0 mm/hr 0.00 in0.0 mm
10:15 AM 78.3°F25.7°C 54.6°F12.6°C 44% 12.9 mph WSW20.8 kmh WSW 19.7 mph31.7 kmh 29.71 in1006.1 mb 0.00 in0.0 mm 0.00 in/hr0.0 mm/hr 0.00 in0.0 mm
10:21 AM 78.3°F25.7°C 55.2°F12.9°C 45% 11.4 mph WSW18.3 kmh WSW 17.4 mph28.0 kmh 29.71 in1006.1 mb 0.00 in0.0 mm 0.00 in/hr0.0 mm/hr 0.00 in0.0 mm
10:27 AM 78.1°F25.6°C 53.8°F12.1°C 43% 10.5 mph WSW16.9 kmh WSW 17.4 mph28.0 kmh 29.71 in1006.1 mb 0.00 in0.0 mm 0.00 in/hr0.0 mm/hr 0.00 in0.0 mm
10:33 AM 78.8°F26.0°C 51.7°F10.9°C 39% 12.5 mph SW20.1 kmh SW 25.5 mph41.0 kmh 29.71 in1006.1 mb 0.00 in0.0 mm 0.00 in/hr0.0 mm/hr 0.00 in0.0 mm
10:39 AM 79.2°F26.2°C 50.6°F10.3°C 37% 12.9 mph WSW20.8 kmh WSW 25.5 mph41.0 kmh 29.74 in1007.1 mb 0.00 in0.0 mm 0.00 in/hr0.0 mm/hr 0.00 in0.0 mm
10:45 AM 79.0°F26.1°C 51.9°F11.1°C 39% 11.3 mph WSW18.2 kmh WSW 21.5 mph34.6 kmh 29.74 in1007.1 mb 0.00 in0.0 mm 0.00 in/hr0.0 mm/hr 0.00 in0.0 mm
10:51 AM 79.0°F26.1°C 50.5°F10.3°C 37% 12.4 mph WSW20.0 kmh WSW 21.5 mph34.6 kmh 29.74 in1007.1 mb 0.00 in0.0 mm 0.00 in/hr0.0 mm/hr 0.00 in0.0 mm
10:57 AM 79.3°F26.3°C 50.8°F10.4°C 37% 12.8 mph WSW20.6 kmh WSW 17.9 mph28.8 kmh 29.74 in1007.1 mb 0.00 in0.0 mm 0.00 in/hr0.0 mm/hr 0.00 in0.0 mm
11:03 AM 79.5°F26.4°C 50.2°F10.1°C 36% 12.7 mph SW20.4 kmh SW 20.1 mph32.3 kmh 29.74 in1007.1 mb 0.00 in0.0 mm 0.00 in/hr0.0 mm/hr 0.00 in0.0 mm
11:09 AM 80.1°F26.7°C 50.7°F10.4°C 36% 13.4 mph SW21.6 kmh SW 22.8 mph36.7 kmh 29.74 in1007.1 mb 0.00 in0.0 mm 0.00 in/hr0.0 mm/hr 0.00 in0.0 mm
11:15 AM 80.8°F27.1°C 50.6°F10.3°C 35% 13.7 mph SW22.0 kmh SW 24.2 mph38.9 kmh 29.74 in1007.1 mb 0.00 in0.0 mm 0.00 in/hr0.0 mm/hr 0.00 in0.0 mm
11:21 AM 81.0°F27.2°C 49.9°F9.9°C 34% 13.6 mph SW21.9 kmh SW 24.2 mph38.9 kmh 29.74 in1007.1 mb 0.00 in0.0 mm 0.00 in/hr0.0 mm/hr 0.00 in0.0 mm
11:27 AM 81.0°F27.2°C 49.9°F9.9°C 34% 13.1 mph WSW21.1 kmh WSW 20.1 mph32.3 kmh 29.74 in1007.1 mb 0.00 in0.0 mm 0.00 in/hr0.0 mm/hr 0.00 in0.0 mm
11:33 AM 81.5°F27.5°C 49.6°F9.8°C 33% 12.6 mph WSW20.3 kmh WSW 23.3 mph37.5 kmh 29.74 in1007.1 mb 0.00 in0.0 mm 0.00 in/hr0.0 mm/hr 0.00 in0.0 mm
11:39 AM 81.7°F27.6°C 50.6°F10.3°C 34% 13.8 mph SW22.2 kmh SW 23.3 mph37.5 kmh 29.74 in1007.1 mb 0.00 in0.0 mm 0.00 in/hr0.0 mm/hr 0.00 in0.0 mm
11:45 AM 81.3°F27.4°C 51.0°F10.6°C 35% 13.8 mph WSW22.2 kmh WSW 19.7 mph31.7 kmh 29.74 in1007.1 mb 0.00 in0.0 mm 0.00 in/hr0.0 mm/hr 0.00 in0.0 mm
11:51 AM 81.5°F27.5°C 50.4°F10.2°C 34% 13.6 mph SW21.9 kmh SW 25.5 mph41.0 kmh 29.74 in1007.1 mb 0.00 in0.0 mm 0.00 in/hr0.0 mm/hr 0.00 in0.0 mm
11:57 AM 81.3°F27.4°C 50.3°F10.2°C 34% 15.3 mph SW24.6 kmh SW 25.7 mph41.4 kmh 29.74 in1007.1 mb 0.00 in0.0 mm 0.00 in/hr0.0 mm/hr 0.00 in0.0 mm
12:03 PM 80.8°F27.1°C 49.8°F9.9°C 34% 15.0 mph SW24.1 kmh SW 25.7 mph41.4 kmh 29.74 in1007.1 mb 0.00 in0.0 mm 0.00 in/hr0.0 mm/hr 0.00 in0.0 mm
12:09 PM 80.1°F26.7°C 49.9°F9.9°C 35% 13.6 mph WSW21.9 kmh WSW 25.1 mph40.4 kmh 29.71 in1006.1 mb 0.00 in0.0 mm 0.00 in/hr0.0 mm/hr 0.00 in0.0 mm
12:15 PM 79.9°F26.6°C 50.5°F10.3°C 36% 13.8 mph SW22.2 kmh SW 25.1 mph40.4 kmh 29.71 in1006.1 mb 0.00 in0.0 mm 0.00 in/hr0.0 mm/hr 0.00 in0.0 mm
12:21 PM 79.5°F26.4°C 50.2°F10.1°C 36% 14.7 mph SW23.7 kmh SW 24.2 mph38.9 kmh 29.71 in1006.1 mb 0.00 in0.0 mm 0.00 in/hr0.0 mm/hr 0.00 in0.0 mm
12:27 PM 79.2°F26.2°C 50.6°F10.3°C 37% 13.9 mph SW22.4 kmh SW 24.2 mph38.9 kmh 29.71 in1006.1 mb 0.00 in0.0 mm 0.00 in/hr0.0 mm/hr 0.00 in0.0 mm
12:33 PM 79.2°F26.2°C 50.6°F10.3°C 37% 13.2 mph WSW21.2 kmh WSW 18.3 mph29.5 kmh 29.71 in1006.1 mb 0.00 in0.0 mm 0.00 in/hr0.0 mm/hr 0.00 in0.0 mm
12:39 PM 79.9°F26.6°C 51.3°F10.7°C 37% 12.4 mph WSW20.0 kmh WSW 24.6 mph39.6 kmh 29.71 in1006.1 mb 0.00 in0.0 mm 0.00 in/hr0.0 mm/hr 0.00 in0.0 mm
12:45 PM 77.0°F25.0°C 60.1°F15.6°C 56% 14.9 mph WSW24.0 kmh WSW 28.4 mph45.7 kmh 29.71 in1006.1 mb 0.00 in0.0 mm 0.00 in/hr0.0 mm/hr 0.00 in0.0 mm
12:51 PM 73.9°F23.3°C 62.7°F17.1°C 68% 11.4 mph WSW18.3 kmh WSW 22.4 mph36.0 kmh 29.71 in1006.1 mb 0.00 in0.0 mm 0.00 in/hr0.0 mm/hr 0.00 in0.0 mm
12:57 PM 73.2°F22.9°C 64.0°F17.8°C 73% 8.5 mph WSW13.7 kmh WSW 17.0 mph27.4 kmh 29.71 in1006.1 mb 0.04 in1.0 mm 0.40 in/hr10.2 mm/hr 0.04 in1.0 mm
01:03 PM 73.0°F22.8°C 65.4°F18.6°C 77% 8.9 mph WSW14.3 kmh WSW 17.0 mph27.4 kmh 29.71 in1006.1 mb 0.04 in1.0 mm 0.00 in/hr0.0 mm/hr 0.04 in1.0 mm
01:09 PM 73.2°F22.9°C 66.3°F19.1°C 79% 9.1 mph WSW14.6 kmh WSW 12.3 mph19.8 kmh 29.71 in1006.1 mb 0.04 in1.0 mm 0.00 in/hr0.0 mm/hr 0.04 in1.0 mm
01:15 PM 72.7°F22.6°C 65.4°F18.6°C 78% 10.7 mph WSW17.2 kmh WSW 19.7 mph31.7 kmh 29.71 in1006.1 mb 0.08 in2.0 mm 0.40 in/hr10.2 mm/hr 0.08 in2.0 mm
01:21 PM 72.3°F22.4°C 65.8°F18.8°C 80% 10.1 mph W16.3 kmh W 19.7 mph31.7 kmh 29.71 in1006.1 mb 0.08 in2.0 mm 0.00 in/hr0.0 mm/hr 0.08 in2.0 mm
01:27 PM 71.8°F22.1°C 66.0°F18.9°C 82% 8.1 mph W13.0 kmh W 17.9 mph28.8 kmh 29.71 in1006.1 mb 0.12 in3.0 mm 0.40 in/hr10.2 mm/hr 0.12 in3.0 mm
01:33 PM 70.9°F21.6°C 65.1°F18.4°C 82% 9.1 mph WSW14.6 kmh WSW 19.7 mph31.7 kmh 29.71 in1006.1 mb 0.16 in4.1 mm 0.40 in/hr10.2 mm/hr 0.16 in4.1 mm
01:39 PM 72.0°F22.2°C 69.2°F20.7°C 91% 8.9 mph SW14.3 kmh SW 15.4 mph24.8 kmh 29.71 in1006.1 mb 0.16 in4.1 mm 0.00 in/hr0.0 mm/hr 0.16 in4.1 mm
01:45 PM 73.2°F22.9°C 69.8°F21.0°C 89% 9.5 mph SW15.3 kmh SW 18.8 mph30.3 kmh 29.71 in1006.1 mb 0.16 in4.1 mm 0.00 in/hr0.0 mm/hr 0.16 in4.1 mm
01:51 PM 74.7°F23.7°C 67.7°F19.8°C 79% 10.0 mph WSW16.1 kmh WSW 17.4 mph28.0 kmh 29.71 in1006.1 mb 0.16 in4.1 mm 0.00 in/hr0.0 mm/hr 0.16 in4.1 mm
01:57 PM 76.5°F24.7°C 63.8°F17.7°C 65% 12.2 mph WSW19.6 kmh WSW 22.8 mph36.7 kmh 29.71 in1006.1 mb 0.12 in3.0 mm 0.00 in/hr0.0 mm/hr 0.16 in4.1 mm
02:03 PM 77.7°F25.4°C 61.3°F16.3°C 57% 12.9 mph WSW20.8 kmh WSW 22.8 mph36.7 kmh 29.71 in1006.1 mb 0.12 in3.0 mm 0.00 in/hr0.0 mm/hr 0.16 in4.1 mm
02:09 PM 77.9°F25.5°C 59.9°F15.5°C 54% 11.8 mph WSW19.0 kmh WSW 21.5 mph34.6 kmh 29.71 in1006.1 mb 0.12 in3.0 mm 0.00 in/hr0.0 mm/hr 0.16 in4.1 mm
02:15 PM 78.4°F25.8°C 59.4°F15.2°C 52% 12.8 mph WSW20.6 kmh WSW 21.5 mph34.6 kmh 29.71 in1006.1 mb 0.08 in2.0 mm 0.00 in/hr0.0 mm/hr 0.16 in4.1 mm
02:21 PM 79.0°F26.1°C 58.2°F14.6°C 49% 13.3 mph WSW21.4 kmh WSW 19.7 mph31.7 kmh 29.71 in1006.1 mb 0.08 in2.0 mm 0.00 in/hr0.0 mm/hr 0.16 in4.1 mm
02:27 PM 79.7°F26.5°C 56.5°F13.6°C 45% 13.5 mph WSW21.7 kmh WSW 23.3 mph37.5 kmh 29.71 in1006.1 mb 0.04 in1.0 mm 0.00 in/hr0.0 mm/hr 0.16 in4.1 mm
02:33 PM 80.2°F26.8°C 55.1°F12.8°C 42% 14.5 mph WSW23.3 kmh WSW 23.3 mph37.5 kmh 29.71 in1006.1 mb 0.00 in0.0 mm 0.00 in/hr0.0 mm/hr 0.16 in4.1 mm
02:39 PM 80.8°F27.1°C 54.2°F12.3°C 40% 13.9 mph WSW22.4 kmh WSW 21.0 mph33.8 kmh 29.71 in1006.1 mb 0.00 in0.0 mm 0.00 in/hr0.0 mm/hr 0.16 in4.1 mm
02:45 PM 81.3°F27.4°C 52.6°F11.4°C 37% 14.5 mph WSW23.3 kmh WSW 22.4 mph36.0 kmh 29.71 in1006.1 mb 0.00 in0.0 mm 0.00 in/hr0.0 mm/hr 0.16 in4.1 mm
02:51 PM 81.9°F27.7°C 54.5°F12.5°C 39% 14.5 mph WSW23.3 kmh WSW 22.4 mph36.0 kmh 29.68 in1005.1 mb 0.00 in0.0 mm 0.00 in/hr0.0 mm/hr 0.16 in4.1 mm
02:57 PM 81.7°F27.6°C 52.9°F11.6°C 37% 13.0 mph WSW20.9 kmh WSW 19.7 mph31.7 kmh 29.68 in1005.1 mb 0.00 in0.0 mm 0.00 in/hr0.0 mm/hr 0.16 in4.1 mm
03:03 PM 81.5°F27.5°C 50.4°F10.2°C 34% 14.0 mph WSW22.5 kmh WSW 22.4 mph36.0 kmh 29.68 in1005.1 mb 0.00 in0.0 mm 0.00 in/hr0.0 mm/hr 0.16 in4.1 mm
03:09 PM 82.0°F27.8°C 50.9°F10.5°C 34% 13.1 mph WSW21.1 kmh WSW 20.1 mph32.3 kmh 29.68 in1005.1 mb 0.00 in0.0 mm 0.00 in/hr0.0 mm/hr 0.16 in4.1 mm
03:15 PM 82.2°F27.9°C 51.1°F10.6°C 34% 12.5 mph WSW20.1 kmh WSW 17.9 mph28.8 kmh 29.68 in1005.1 mb 0.00 in0.0 mm 0.00 in/hr0.0 mm/hr 0.16 in4.1 mm
03:21 PM 82.2°F27.9°C 51.1°F10.6°C 34% 12.8 mph WSW20.6 kmh WSW 17.9 mph28.8 kmh 29.68 in1005.1 mb 0.00 in0.0 mm 0.00 in/hr0.0 mm/hr 0.16 in4.1 mm
03:27 PM 82.4°F28.0°C 51.2°F10.7°C 34% 12.2 mph WSW19.6 kmh WSW 17.9 mph28.8 kmh 29.68 in1005.1 mb 0.00 in0.0 mm 0.00 in/hr0.0 mm/hr 0.16 in4.1 mm
03:33 PM 83.1°F28.4°C 51.0°F10.6°C 33% 12.1 mph WSW19.5 kmh WSW 17.9 mph28.8 kmh 29.68 in1005.1 mb 0.00 in0.0 mm 0.00 in/hr0.0 mm/hr 0.16 in4.1 mm
03:39 PM 83.7°F28.7°C 51.5°F10.8°C 33% 10.7 mph WSW17.2 kmh WSW 16.8 mph27.0 kmh 29.68 in1005.1 mb 0.00 in0.0 mm 0.00 in/hr0.0 mm/hr 0.16 in4.1 mm
03:45 PM 83.3°F28.5°C 52.0°F11.1°C 34% 10.4 mph WSW16.7 kmh WSW 17.4 mph28.0 kmh 29.68 in1005.1 mb 0.00 in0.0 mm 0.00 in/hr0.0 mm/hr 0.16 in4.1 mm
03:51 PM 83.1°F28.4°C 51.8°F11.0°C 34% 11.3 mph WSW18.2 kmh WSW 17.4 mph28.0 kmh 29.68 in1005.1 mb 0.00 in0.0 mm 0.00 in/hr0.0 mm/hr 0.16 in4.1 mm
03:57 PM 83.3°F28.5°C 52.0°F11.1°C 34% 11.6 mph W18.7 kmh W 16.3 mph26.2 kmh 29.68 in1005.1 mb 0.00 in0.0 mm 0.00 in/hr0.0 mm/hr 0.16 in4.1 mm
04:03 PM 83.7°F28.7°C 50.7°F10.4°C 32% 11.3 mph WSW18.2 kmh WSW 19.2 mph30.9 kmh 29.68 in1005.1 mb 0.00 in0.0 mm 0.00 in/hr0.0 mm/hr 0.16 in4.1 mm
04:09 PM 83.8°F28.8°C 46.3°F7.9°C 27% 11.4 mph WSW18.3 kmh WSW 19.2 mph30.9 kmh 29.68 in1005.1 mb 0.00 in0.0 mm 0.00 in/hr0.0 mm/hr 0.16 in4.1 mm
04:15 PM 83.7°F28.7°C 47.1°F8.4°C 28% 11.8 mph WSW19.0 kmh WSW 18.8 mph30.3 kmh 29.68 in1005.1 mb 0.00 in0.0 mm 0.00 in/hr0.0 mm/hr 0.16 in4.1 mm
04:21 PM 83.5°F28.6°C 47.9°F8.8°C 29% 11.5 mph W18.5 kmh W 18.8 mph30.3 kmh 29.68 in1005.1 mb 0.00 in0.0 mm 0.00 in/hr0.0 mm/hr 0.16 in4.1 mm
04:27 PM 83.5°F28.6°C 46.9°F8.3°C 28% 10.8 mph WSW17.4 kmh WSW 17.4 mph28.0 kmh 29.68 in1005.1 mb 0.00 in0.0 mm 0.00 in/hr0.0 mm/hr 0.16 in4.1 mm
04:33 PM 83.8°F28.8°C 48.2°F9.0°C 29% 10.2 mph WSW16.4 kmh WSW 17.4 mph28.0 kmh 29.68 in1005.1 mb 0.00 in0.0 mm 0.00 in/hr0.0 mm/hr 0.16 in4.1 mm
04:39 PM 83.8°F28.8°C 48.2°F9.0°C 29% 10.0 mph WSW16.1 kmh WSW 15.0 mph24.1 kmh 29.68 in1005.1 mb 0.00 in0.0 mm 0.00 in/hr0.0 mm/hr 0.16 in4.1 mm
04:45 PM 83.5°F28.6°C 46.9°F8.3°C 28% 11.5 mph WSW18.5 kmh WSW 16.3 mph26.2 kmh 29.68 in1005.1 mb 0.00 in0.0 mm 0.00 in/hr0.0 mm/hr 0.16 in4.1 mm
04:51 PM 83.1°F28.4°C 49.3°F9.6°C 31% 11.1 mph WSW17.9 kmh WSW 17.9 mph28.8 kmh 29.68 in1005.1 mb 0.00 in0.0 mm 0.00 in/hr0.0 mm/hr 0.16 in4.1 mm
04:57 PM 83.1°F28.4°C 47.6°F8.7°C 29% 10.9 mph WSW17.5 kmh WSW 17.9 mph28.8 kmh 29.68 in1005.1 mb 0.00 in0.0 mm 0.00 in/hr0.0 mm/hr 0.16 in4.1 mm
05:03 PM 82.9°F28.3°C 50.9°F10.5°C 33% 11.8 mph WSW19.0 kmh WSW 15.9 mph25.6 kmh 29.68 in1005.1 mb 0.00 in0.0 mm 0.00 in/hr0.0 mm/hr 0.16 in4.1 mm
05:09 PM 82.9°F28.3°C 51.7°F10.9°C 34% 9.7 mph WSW15.6 kmh WSW 15.0 mph24.1 kmh 29.68 in1005.1 mb 0.00 in0.0 mm 0.00 in/hr0.0 mm/hr 0.16 in4.1 mm
05:15 PM 82.9°F28.3°C 50.9°F10.5°C 33% 9.5 mph W15.3 kmh W 15.9 mph25.6 kmh 29.68 in1005.1 mb 0.00 in0.0 mm 0.00 in/hr0.0 mm/hr 0.16 in4.1 mm
05:21 PM 82.2°F27.9°C 51.1°F10.6°C 34% 10.7 mph WSW17.2 kmh WSW 17.0 mph27.4 kmh 29.68 in1005.1 mb 0.00 in0.0 mm 0.00 in/hr0.0 mm/hr 0.16 in4.1 mm
05:27 PM 82.0°F27.8°C 51.7°F10.9°C 35% 11.0 mph WSW17.7 kmh WSW 17.0 mph27.4 kmh 29.68 in1005.1 mb 0.00 in0.0 mm 0.00 in/hr0.0 mm/hr 0.16 in4.1 mm
05:33 PM 82.0°F27.8°C 51.7°F10.9°C 35% 11.2 mph WSW18.0 kmh WSW 16.3 mph26.2 kmh 29.68 in1005.1 mb 0.00 in0.0 mm 0.00 in/hr0.0 mm/hr 0.16 in4.1 mm
05:39 PM 81.9°F27.7°C 52.3°F11.3°C 36% 11.4 mph WSW18.3 kmh WSW 15.4 mph24.8 kmh 29.68 in1005.1 mb 0.00 in0.0 mm 0.00 in/hr0.0 mm/hr 0.16 in4.1 mm
05:45 PM 81.9°F27.7°C 52.3°F11.3°C 36% 10.0 mph WSW16.1 kmh WSW 14.5 mph23.3 kmh 29.68 in1005.1 mb 0.00 in0.0 mm 0.00 in/hr0.0 mm/hr 0.16 in4.1 mm
05:51 PM 81.3°F27.4°C 51.8°F11.0°C 36% 9.6 mph WSW15.4 kmh WSW 15.4 mph24.8 kmh 29.68 in1005.1 mb 0.00 in0.0 mm 0.00 in/hr0.0 mm/hr 0.16 in4.1 mm
05:57 PM 81.0°F27.2°C 50.7°F10.4°C 35% 9.1 mph W14.6 kmh W 13.2 mph21.2 kmh 29.68 in1005.1 mb 0.00 in0.0 mm 0.00 in/hr0.0 mm/hr 0.16 in4.1 mm
06:03 PM 81.1°F27.3°C 50.1°F10.1°C 34% 8.8 mph W14.2 kmh W 13.2 mph21.2 kmh 29.68 in1005.1 mb 0.00 in0.0 mm 0.00 in/hr0.0 mm/hr 0.16 in4.1 mm
06:09 PM 81.0°F27.2°C 49.9°F9.9°C 34% 9.2 mph W14.8 kmh W 17.4 mph28.0 kmh 29.71 in1006.1 mb 0.00 in0.0 mm 0.00 in/hr0.0 mm/hr 0.16 in4.1 mm
06:15 PM 81.0°F27.2°C 50.7°F10.4°C 35% 10.1 mph W16.3 kmh W 17.4 mph28.0 kmh 29.71 in1006.1 mb 0.00 in0.0 mm 0.00 in/hr0.0 mm/hr 0.16 in4.1 mm
06:21 PM 80.6°F27.0°C 50.4°F10.2°C 35% 10.6 mph W17.1 kmh W 17.4 mph28.0 kmh 29.71 in1006.1 mb 0.00 in0.0 mm 0.00 in/hr0.0 mm/hr 0.16 in4.1 mm
06:27 PM 80.2°F26.8°C 50.1°F10.1°C 35% 11.0 mph W17.7 kmh W 15.4 mph24.8 kmh 29.71 in1006.1 mb 0.00 in0.0 mm 0.00 in/hr0.0 mm/hr 0.16 in4.1 mm
06:33 PM 79.9°F26.6°C 49.8°F9.9°C 35% 10.2 mph W16.4 kmh W 15.4 mph24.8 kmh 29.71 in1006.1 mb 0.00 in0.0 mm 0.00 in/hr0.0 mm/hr 0.16 in4.1 mm
06:39 PM 79.7°F26.5°C 50.4°F10.2°C 36% 9.2 mph W14.8 kmh W 13.2 mph21.2 kmh 29.71 in1006.1 mb 0.00 in0.0 mm 0.00 in/hr0.0 mm/hr 0.16 in4.1 mm
06:45 PM 79.5°F26.4°C 50.2°F10.1°C 36% 9.2 mph W14.8 kmh W 13.2 mph21.2 kmh 29.71 in1006.1 mb 0.00 in0.0 mm 0.00 in/hr0.0 mm/hr 0.16 in4.1 mm
06:51 PM 79.2°F26.2°C 49.9°F9.9°C 36% 9.1 mph W14.6 kmh W 14.5 mph23.3 kmh 29.71 in1006.1 mb 0.00 in0.0 mm 0.00 in/hr0.0 mm/hr 0.16 in4.1 mm
06:57 PM 78.8°F26.0°C 50.3°F10.2°C 37% 9.7 mph W15.6 kmh W 16.8 mph27.0 kmh 29.71 in1006.1 mb 0.00 in0.0 mm 0.00 in/hr0.0 mm/hr 0.16 in4.1 mm
07:03 PM 78.4°F25.8°C 51.4°F10.8°C 39% 9.2 mph W14.8 kmh W 15.0 mph24.1 kmh 29.71 in1006.1 mb 0.00 in0.0 mm 0.00 in/hr0.0 mm/hr 0.16 in4.1 mm
07:09 PM 78.1°F25.6°C 52.5°F11.4°C 41% 9.7 mph W15.6 kmh W 15.0 mph24.1 kmh 29.74 in1007.1 mb 0.00 in0.0 mm 0.00 in/hr0.0 mm/hr 0.16 in4.1 mm
07:15 PM 77.7°F25.4°C 53.4°F11.9°C 43% 9.4 mph W15.1 kmh W 15.4 mph24.8 kmh 29.74 in1007.1 mb 0.00 in0.0 mm 0.00 in/hr0.0 mm/hr 0.16 in4.1 mm
07:21 PM 77.2°F25.1°C 54.2°F12.3°C 45% 9.3 mph WSW15.0 kmh WSW 15.4 mph24.8 kmh 29.74 in1007.1 mb 0.00 in0.0 mm 0.00 in/hr0.0 mm/hr 0.16 in4.1 mm
07:27 PM 76.8°F24.9°C 55.6°F13.1°C 48% 8.8 mph WSW14.2 kmh WSW 15.9 mph25.6 kmh 29.74 in1007.1 mb 0.00 in0.0 mm 0.00 in/hr0.0 mm/hr 0.16 in4.1 mm
07:33 PM 76.3°F24.6°C 55.7°F13.2°C 49% 8.9 mph WSW14.3 kmh WSW 15.9 mph25.6 kmh 29.74 in1007.1 mb 0.00 in0.0 mm 0.00 in/hr0.0 mm/hr 0.16 in4.1 mm
07:39 PM 76.1°F24.5°C 56.1°F13.4°C 50% 8.6 mph WSW13.8 kmh WSW 12.8 mph20.6 kmh 29.74 in1007.1 mb 0.00 in0.0 mm 0.00 in/hr0.0 mm/hr 0.16 in4.1 mm
07:45 PM 75.7°F24.3°C 56.3°F13.5°C 51% 8.1 mph WSW13.0 kmh WSW 12.8 mph20.6 kmh 29.74 in1007.1 mb 0.00 in0.0 mm 0.00 in/hr0.0 mm/hr 0.16 in4.1 mm
07:51 PM 75.6°F24.2°C 56.2°F13.4°C 51% 7.4 mph W11.9 kmh W 11.0 mph17.7 kmh 29.74 in1007.1 mb 0.00 in0.0 mm 0.00 in/hr0.0 mm/hr 0.16 in4.1 mm
07:57 PM 75.2°F24.0°C 55.3°F12.9°C 50% 7.8 mph W12.6 kmh W 12.3 mph19.8 kmh 29.74 in1007.1 mb 0.00 in0.0 mm 0.00 in/hr0.0 mm/hr 0.16 in4.1 mm
08:03 PM 75.0°F23.9°C 55.1°F12.8°C 50% 8.4 mph W13.5 kmh W 13.2 mph21.2 kmh 29.74 in1007.1 mb 0.00 in0.0 mm 0.00 in/hr0.0 mm/hr 0.16 in4.1 mm
08:09 PM 74.8°F23.8°C 55.5°F13.1°C 51% 7.9 mph W12.7 kmh W 13.2 mph21.2 kmh 29.77 in1008.1 mb 0.00 in0.0 mm 0.00 in/hr0.0 mm/hr 0.16 in4.1 mm
08:15 PM 74.5°F23.6°C 55.2°F12.9°C 51% 7.8 mph W12.6 kmh W 15.0 mph24.1 kmh 29.77 in1008.1 mb 0.00 in0.0 mm 0.00 in/hr0.0 mm/hr 0.16 in4.1 mm
08:21 PM 74.3°F23.5°C 55.5°F13.1°C 52% 7.9 mph W12.7 kmh W 13.2 mph21.2 kmh 29.77 in1008.1 mb 0.00 in0.0 mm 0.00 in/hr0.0 mm/hr 0.16 in4.1 mm
08:27 PM 74.1°F23.4°C 55.4°F13.0°C 52% 7.8 mph W12.6 kmh W 11.4 mph18.3 kmh 29.77 in1008.1 mb 0.00 in0.0 mm 0.00 in/hr0.0 mm/hr 0.16 in4.1 mm
08:33 PM 73.9°F23.3°C 56.2°F13.4°C 54% 7.3 mph W11.7 kmh W 11.0 mph17.7 kmh 29.77 in1008.1 mb 0.00 in0.0 mm 0.00 in/hr0.0 mm/hr 0.16 in4.1 mm
08:39 PM 73.8°F23.2°C 56.1°F13.4°C 54% 8.1 mph W13.0 kmh W 13.2 mph21.2 kmh 29.77 in1008.1 mb 0.00 in0.0 mm 0.00 in/hr0.0 mm/hr 0.16 in4.1 mm
08:45 PM 73.4°F23.0°C 56.2°F13.4°C 55% 8.5 mph W13.7 kmh W 13.2 mph21.2 kmh 29.77 in1008.1 mb 0.00 in0.0 mm 0.00 in/hr0.0 mm/hr 0.16 in4.1 mm
08:51 PM 73.2°F22.9°C 56.6°F13.7°C 56% 8.0 mph W12.9 kmh W 12.8 mph20.6 kmh 29.80 in1009.1 mb 0.00 in0.0 mm 0.00 in/hr0.0 mm/hr 0.16 in4.1 mm
08:57 PM 73.0°F22.8°C 56.4°F13.6°C 56% 7.2 mph W11.6 kmh W 12.8 mph20.6 kmh 29.80 in1009.1 mb 0.00 in0.0 mm 0.00 in/hr0.0 mm/hr 0.16 in4.1 mm
09:03 PM 72.9°F22.7°C 55.7°F13.2°C 55% 7.7 mph W12.4 kmh W 13.2 mph21.2 kmh 29.80 in1009.1 mb 0.00 in0.0 mm 0.00 in/hr0.0 mm/hr 0.16 in4.1 mm
09:09 PM 72.9°F22.7°C 55.7°F13.2°C 55% 8.0 mph WNW12.9 kmh WNW 13.2 mph21.2 kmh 29.80 in1009.1 mb 0.00 in0.0 mm 0.00 in/hr0.0 mm/hr 0.16 in4.1 mm
09:15 PM 72.7°F22.6°C 55.6°F13.1°C 55% 8.5 mph W13.7 kmh W 14.1 mph22.7 kmh 29.80 in1009.1 mb 0.00 in0.0 mm 0.00 in/hr0.0 mm/hr 0.16 in4.1 mm
09:21 PM 72.5°F22.5°C 54.9°F12.7°C 54% 8.4 mph W13.5 kmh W 14.1 mph22.7 kmh 29.80 in1009.1 mb 0.00 in0.0 mm 0.00 in/hr0.0 mm/hr 0.16 in4.1 mm
09:27 PM 72.3°F22.4°C 55.2°F12.9°C 55% 6.5 mph W10.5 kmh W 10.5 mph16.9 kmh 29.80 in1009.1 mb 0.00 in0.0 mm 0.00 in/hr0.0 mm/hr 0.16 in4.1 mm
09:33 PM 72.1°F22.3°C 55.1°F12.8°C 55% 6.7 mph W10.8 kmh W 10.5 mph16.9 kmh 29.80 in1009.1 mb 0.00 in0.0 mm 0.00 in/hr0.0 mm/hr 0.16 in4.1 mm
09:39 PM 72.0°F22.2°C 55.4°F13.0°C 56% 7.1 mph W11.4 kmh W 10.1 mph16.3 kmh 29.80 in1009.1 mb 0.00 in0.0 mm 0.00 in/hr0.0 mm/hr 0.16 in4.1 mm
09:45 PM 71.8°F22.1°C 55.7°F13.2°C 57% 7.5 mph WNW12.1 kmh WNW 11.0 mph17.7 kmh 29.80 in1009.1 mb 0.00 in0.0 mm 0.00 in/hr0.0 mm/hr 0.16 in4.1 mm
09:51 PM 71.8°F22.1°C 55.7°F13.2°C 57% 7.7 mph W12.4 kmh W 11.0 mph17.7 kmh 29.80 in1009.1 mb 0.00 in0.0 mm 0.00 in/hr0.0 mm/hr 0.16 in4.1 mm
09:57 PM 71.6°F22.0°C 56.0°F13.3°C 58% 7.0 mph W11.3 kmh W 10.1 mph16.3 kmh 29.80 in1009.1 mb 0.00 in0.0 mm 0.00 in/hr0.0 mm/hr 0.16 in4.1 mm
10:03 PM 71.4°F21.9°C 56.3°F13.5°C 59% 6.5 mph W10.5 kmh W 11.0 mph17.7 kmh 29.80 in1009.1 mb 0.00 in0.0 mm 0.00 in/hr0.0 mm/hr 0.16 in4.1 mm
10:09 PM 71.2°F21.8°C 56.6°F13.7°C 60% 6.2 mph W10.0 kmh W 10.5 mph16.9 kmh 29.83 in1010.2 mb 0.00 in0.0 mm 0.00 in/hr0.0 mm/hr 0.16 in4.1 mm
10:15 PM 71.1°F21.7°C 57.4°F14.1°C 62% 5.9 mph W9.5 kmh W 10.5 mph16.9 kmh 29.83 in1010.2 mb 0.00 in0.0 mm 0.00 in/hr0.0 mm/hr 0.16 in4.1 mm
10:21 PM 70.9°F21.6°C 57.2°F14.0°C 62% 5.3 mph W8.5 kmh W 8.3 mph13.4 kmh 29.83 in1010.2 mb 0.00 in0.0 mm 0.00 in/hr0.0 mm/hr 0.16 in4.1 mm
10:27 PM 70.5°F21.4°C 57.3°F14.1°C 63% 5.8 mph W9.3 kmh W 8.7 mph14.0 kmh 29.83 in1010.2 mb 0.00 in0.0 mm 0.00 in/hr0.0 mm/hr 0.16 in4.1 mm
10:33 PM 70.3°F21.3°C 57.6°F14.2°C 64% 6.0 mph W9.7 kmh W 10.1 mph16.3 kmh 29.83 in1010.2 mb 0.00 in0.0 mm 0.00 in/hr0.0 mm/hr 0.16 in4.1 mm
10:39 PM 70.3°F21.3°C 58.0°F14.4°C 65% 5.8 mph W9.3 kmh W 10.1 mph16.3 kmh 29.83 in1010.2 mb 0.00 in0.0 mm 0.00 in/hr0.0 mm/hr 0.16 in4.1 mm
10:45 PM 70.2°F21.2°C 58.3°F14.6°C 66% 5.3 mph W8.5 kmh W 8.3 mph13.4 kmh 29.83 in1010.2 mb 0.00 in0.0 mm 0.00 in/hr0.0 mm/hr 0.16 in4.1 mm
10:51 PM 70.0°F21.1°C 58.1°F14.5°C 66% 5.1 mph W8.2 kmh W 8.3 mph13.4 kmh 29.83 in1010.2 mb 0.00 in0.0 mm 0.00 in/hr0.0 mm/hr 0.16 in4.1 mm
10:57 PM 69.8°F21.0°C 58.3°F14.6°C 67% 5.7 mph W9.2 kmh W 10.1 mph16.3 kmh 29.83 in1010.2 mb 0.00 in0.0 mm 0.00 in/hr0.0 mm/hr 0.16 in4.1 mm
11:03 PM 69.6°F20.9°C 58.6°F14.8°C 68% 5.6 mph W9.0 kmh W 8.1 mph13.0 kmh 29.83 in1010.2 mb 0.00 in0.0 mm 0.00 in/hr0.0 mm/hr 0.16 in4.1 mm
11:09 PM 69.4°F20.8°C 58.4°F14.7°C 68% 5.0 mph W8.0 kmh W 7.6 mph12.2 kmh 29.83 in1010.2 mb 0.00 in0.0 mm 0.00 in/hr0.0 mm/hr 0.16 in4.1 mm
11:15 PM 69.4°F20.8°C 59.2°F15.1°C 70% 4.8 mph W7.7 kmh W 7.6 mph12.2 kmh 29.83 in1010.2 mb 0.00 in0.0 mm 0.00 in/hr0.0 mm/hr 0.16 in4.1 mm
11:21 PM 69.3°F20.7°C 59.1°F15.1°C 70% 4.5 mph W7.2 kmh W 7.2 mph11.6 kmh 29.83 in1010.2 mb 0.00 in0.0 mm 0.00 in/hr0.0 mm/hr 0.16 in4.1 mm
11:27 PM 69.3°F20.7°C 59.1°F15.1°C 70% 4.1 mph W6.6 kmh W 5.8 mph9.3 kmh 29.83 in1010.2 mb 0.00 in0.0 mm 0.00 in/hr0.0 mm/hr 0.16 in4.1 mm
11:33 PM 69.1°F20.6°C 59.3°F15.2°C 71% 4.0 mph W6.4 kmh W 6.3 mph10.1 kmh 29.83 in1010.2 mb 0.00 in0.0 mm 0.00 in/hr0.0 mm/hr 0.16 in4.1 mm
11:39 PM 69.1°F20.6°C 59.3°F15.2°C 71% 4.6 mph W7.4 kmh W 7.2 mph11.6 kmh 29.83 in1010.2 mb 0.00 in0.0 mm 0.00 in/hr0.0 mm/hr 0.16 in4.1 mm
11:45 PM 68.9°F20.5°C 59.1°F15.1°C 71% 4.5 mph W7.2 kmh W 7.2 mph11.6 kmh 29.83 in1010.2 mb 0.00 in0.0 mm 0.00 in/hr0.0 mm/hr 0.16 in4.1 mm
11:51 PM 68.9°F20.5°C 59.5°F15.3°C 72% 4.0 mph W6.4 kmh W 5.8 mph9.3 kmh 29.83 in1010.2 mb 0.00 in0.0 mm 0.00 in/hr0.0 mm/hr 0.16 in4.1 mm
11:57 PM 68.7°F20.4°C 59.3°F15.2°C 72% 3.9 mph WNW6.3 kmh WNW 5.8 mph9.3 kmh 29.83 in1010.2 mb 0.00 in0.0 mm 0.00 in/hr0.0 mm/hr 0.16 in4.1 mm